sensor_id;sensor_type;location;lat;lon;timestamp;pressure;altitude;pressure_sealevel;temperature;humidity
71805;BME280;59654;52.216;5.616;2023-05-01T00:00:19;101659.75;;;7.91;84.54
71805;BME280;59654;52.216;5.616;2023-05-01T00:00:54;101659.75;;;7.91;85.12
71805;BME280;59654;52.216;5.616;2023-05-01T00:01:25;101665.06;;;7.91;84.31
71805;BME280;59654;52.216;5.616;2023-05-01T00:01:56;101657.97;;;7.91;84.85
71805;BME280;59654;52.216;5.616;2023-05-01T00:02:27;101662.41;;;7.92;84.83
71805;BME280;59654;52.216;5.616;2023-05-01T00:02:59;101660.63;;;7.91;84.65
71805;BME280;59654;52.216;5.616;2023-05-01T00:03:29;101664.19;;;7.90;84.88
71805;BME280;59654;52.216;5.616;2023-05-01T00:04:00;101657.13;;;7.89;84.88
71805;BME280;59654;52.216;5.616;2023-05-01T00:04:32;101658.03;;;7.88;85.65
71805;BME280;59654;52.216;5.616;2023-05-01T00:05:03;101658.03;;;7.88;86.13
71805;BME280;59654;52.216;5.616;2023-05-01T00:05:34;101659.84;;;7.88;86.07
71805;BME280;59654;52.216;5.616;2023-05-01T00:06:05;101655.41;;;7.86;85.39
71805;BME280;59654;52.216;5.616;2023-05-01T00:06:37;101655.44;;;7.85;85.34
71805;BME280;59654;52.216;5.616;2023-05-01T00:07:08;101654.56;;;7.84;86.53
71805;BME280;59654;52.216;5.616;2023-05-01T00:07:39;101649.25;;;7.83;85.99
71805;BME280;59654;52.216;5.616;2023-05-01T00:08:10;101647.50;;;7.82;85.35
71805;BME280;59654;52.216;5.616;2023-05-01T00:08:41;101661.69;;;7.81;85.79
71805;BME280;59654;52.216;5.616;2023-05-01T00:09:12;101654.63;;;7.78;85.90
71805;BME280;59654;52.216;5.616;2023-05-01T00:09:43;101654.66;;;7.75;85.78
71805;BME280;59654;52.216;5.616;2023-05-01T00:10:13;101656.47;;;7.73;85.56
71805;BME280;59654;52.216;5.616;2023-05-01T00:10:44;101645.91;;;7.70;85.83
71805;BME280;59654;52.216;5.616;2023-05-01T00:11:16;101645.03;;;7.70;85.96
71805;BME280;59654;52.216;5.616;2023-05-01T00:11:47;101647.69;;;7.68;86.66
71805;BME280;59654;52.216;5.616;2023-05-01T00:12:17;101649.47;;;7.69;86.62
71805;BME280;59654;52.216;5.616;2023-05-01T00:12:48;101645.94;;;7.67;86.09
71805;BME280;59654;52.216;5.616;2023-05-01T00:13:19;101648.59;;;7.69;86.39
71805;BME280;59654;52.216;5.616;2023-05-01T00:13:52;101645.94;;;7.67;85.86
71805;BME280;59654;52.216;5.616;2023-05-01T00:14:23;101642.41;;;7.67;86.80
71805;BME280;59654;52.216;5.616;2023-05-01T00:14:54;101640.66;;;7.66;86.21
71805;BME280;59654;52.216;5.616;2023-05-01T00:15:25;101643.31;;;7.66;86.45
71805;BME280;59654;52.216;5.616;2023-05-01T00:15:56;101647.75;;;7.65;85.57
71805;BME280;59654;52.216;5.616;2023-05-01T00:16:27;101635.34;;;7.66;85.55
71805;BME280;59654;52.216;5.616;2023-05-01T00:16:58;101639.78;;;7.64;85.92
71805;BME280;59654;52.216;5.616;2023-05-01T00:17:29;101645.97;;;7.64;85.53
71805;BME280;59654;52.216;5.616;2023-05-01T00:18:01;101642.44;;;7.64;85.38
71805;BME280;59654;52.216;5.616;2023-05-01T00:18:31;101637.13;;;7.64;85.58
71805;BME280;59654;52.216;5.616;2023-05-01T00:19:02;101643.31;;;7.64;85.86
71805;BME280;59654;52.216;5.616;2023-05-01T00:19:34;101639.78;;;7.65;86.38
71805;BME280;59654;52.216;5.616;2023-05-01T00:20:05;101639.78;;;7.64;85.63
71805;BME280;59654;52.216;5.616;2023-05-01T00:20:36;101641.56;;;7.65;86.44
71805;BME280;59654;52.216;5.616;2023-05-01T00:21:07;101638.91;;;7.65;86.52
71805;BME280;59654;52.216;5.616;2023-05-01T00:21:38;101637.13;;;7.65;86.15
71805;BME280;59654;52.216;5.616;2023-05-01T00:22:09;101630.03;;;7.66;85.91
71805;BME280;59654;52.216;5.616;2023-05-01T00:22:40;101633.59;;;7.65;86.59
71805;BME280;59654;52.216;5.616;2023-05-01T00:23:11;101633.59;;;7.63;86.85
71805;BME280;59654;52.216;5.616;2023-05-01T00:23:42;101637.13;;;7.64;86.70
71805;BME280;59654;52.216;5.616;2023-05-01T00:24:15;101636.28;;;7.62;87.56
71805;BME280;59654;52.216;5.616;2023-05-01T00:24:46;101631.88;;;7.61;86.22
71805;BME280;59654;52.216;5.616;2023-05-01T00:25:18;101629.22;;;7.61;86.67
71805;BME280;59654;52.216;5.616;2023-05-01T00:25:49;101637.16;;;7.62;86.81
71805;BME280;59654;52.216;5.616;2023-05-01T00:26:20;101629.22;;;7.59;86.99
71805;BME280;59654;52.216;5.616;2023-05-01T00:26:52;101634.53;;;7.59;87.09
71805;BME280;59654;52.216;5.616;2023-05-01T00:27:23;101623.94;;;7.58;86.18
71805;BME280;59654;52.216;5.616;2023-05-01T00:27:54;101634.56;;;7.56;87.32
71805;BME280;59654;52.216;5.616;2023-05-01T00:28:26;101636.41;;;7.54;87.15
71805;BME280;59654;52.216;5.616;2023-05-01T00:28:57;101629.34;;;7.51;86.79
71805;BME280;59654;52.216;5.616;2023-05-01T00:29:28;101631.09;;;7.52;86.99
71805;BME280;59654;52.216;5.616;2023-05-01T00:29:59;101625.81;;;7.51;87.07
71805;BME280;59654;52.216;5.616;2023-05-01T00:30:32;101624.94;;;7.50;87.28
71805;BME280;59654;52.216;5.616;2023-05-01T00:31:04;101623.16;;;7.51;87.26
71805;BME280;59654;52.216;5.616;2023-05-01T00:31:35;101629.38;;;7.48;87.27
71805;BME280;59654;52.216;5.616;2023-05-01T00:32:06;101622.34;;;7.46;86.40
71805;BME280;59654;52.216;5.616;2023-05-01T00:32:37;101629.44;;;7.42;87.11
71805;BME280;59654;52.216;5.616;2023-05-01T00:33:08;101628.66;;;7.37;87.05
71805;BME280;59654;52.216;5.616;2023-05-01T00:33:39;101626.06;;;7.31;87.71
71805;BME280;59654;52.216;5.616;2023-05-01T00:34:10;101623.47;;;7.27;87.70
71805;BME280;59654;52.216;5.616;2023-05-01T00:34:41;101629.72;;;7.21;88.59
71805;BME280;59654;52.216;5.616;2023-05-01T00:35:12;101625.34;;;7.15;88.97
71805;BME280;59654;52.216;5.616;2023-05-01T00:35:44;101628.91;;;7.11;89.38
71805;BME280;59654;52.216;5.616;2023-05-01T00:36:15;101628.06;;;7.08;89.39
71805;BME280;59654;52.216;5.616;2023-05-01T00:36:46;101623.72;;;7.04;89.48
71805;BME280;59654;52.216;5.616;2023-05-01T00:37:17;101623.75;;;7.01;88.73
71805;BME280;59654;52.216;5.616;2023-05-01T00:37:48;101625.53;;;6.97;88.67
71805;BME280;59654;52.216;5.616;2023-05-01T00:38:18;101622.91;;;6.96;89.33
71805;BME280;59654;52.216;5.616;2023-05-01T00:38:50;101623.78;;;6.95;89.20
71805;BME280;59654;52.216;5.616;2023-05-01T00:39:20;101626.47;;;6.92;89.40
71805;BME280;59654;52.216;5.616;2023-05-01T00:39:51;101614.09;;;6.91;89.74
71805;BME280;59654;52.216;5.616;2023-05-01T00:40:22;101619.47;;;6.89;89.10
71805;BME280;59654;52.216;5.616;2023-05-01T00:40:53;101614.19;;;6.86;89.06
71805;BME280;59654;52.216;5.616;2023-05-01T00:41:24;101620.41;;;6.82;88.93
71805;BME280;59654;52.216;5.616;2023-05-01T00:41:55;101616.00;;;6.79;89.55
71805;BME280;59654;52.216;5.616;2023-05-01T00:42:27;101616.91;;;6.77;89.61
71805;BME280;59654;52.216;5.616;2023-05-01T00:42:57;101617.81;;;6.76;89.99
71805;BME280;59654;52.216;5.616;2023-05-01T00:43:28;101611.66;;;6.74;89.49
71805;BME280;59654;52.216;5.616;2023-05-01T00:43:59;101616.09;;;6.73;89.83
71805;BME280;59654;52.216;5.616;2023-05-01T00:44:30;101618.72;;;6.73;89.57
71805;BME280;59654;52.216;5.616;2023-05-01T00:45:01;101615.16;;;6.74;89.44
71805;BME280;59654;52.216;5.616;2023-05-01T00:45:33;101611.66;;;6.74;90.26
71805;BME280;59654;52.216;5.616;2023-05-01T00:46:04;101610.78;;;6.73;90.20
71805;BME280;59654;52.216;5.616;2023-05-01T00:46:35;101612.50;;;6.76;90.01
71805;BME280;59654;52.216;5.616;2023-05-01T00:47:07;101608.06;;;6.76;89.90
71805;BME280;59654;52.216;5.616;2023-05-01T00:47:39;101611.59;;;6.78;90.35
71805;BME280;59654;52.216;5.616;2023-05-01T00:48:11;101612.47;;;6.80;90.10
71805;BME280;59654;52.216;5.616;2023-05-01T00:48:42;101616.88;;;6.81;89.84
71805;BME280;59654;52.216;5.616;2023-05-01T00:49:12;101613.31;;;6.82;90.02
71805;BME280;59654;52.216;5.616;2023-05-01T00:49:45;101604.47;;;6.85;89.56
71805;BME280;59654;52.216;5.616;2023-05-01T00:50:17;101602.69;;;6.86;89.74
71805;BME280;59654;52.216;5.616;2023-05-01T00:50:48;101603.56;;;6.88;89.57
71805;BME280;59654;52.216;5.616;2023-05-01T00:51:20;101604.44;;;6.88;89.25
71805;BME280;59654;52.216;5.616;2023-05-01T00:51:51;101597.38;;;6.89;89.02
71805;BME280;59654;52.216;5.616;2023-05-01T00:52:23;101606.16;;;6.91;89.04
71805;BME280;59654;52.216;5.616;2023-05-01T00:52:55;101599.09;;;6.91;88.79
71805;BME280;59654;52.216;5.616;2023-05-01T00:53:26;101602.59;;;6.92;89.39
71805;BME280;59654;52.216;5.616;2023-05-01T00:53:58;101595.53;;;6.92;89.37
71805;BME280;59654;52.216;5.616;2023-05-01T00:54:29;101589.34;;;6.93;89.73
71805;BME280;59654;52.216;5.616;2023-05-01T00:55:00;101592.00;;;6.93;89.55
71805;BME280;59654;52.216;5.616;2023-05-01T00:55:32;101592.88;;;6.94;89.72
71805;BME280;59654;52.216;5.616;2023-05-01T00:56:03;101594.63;;;6.93;89.69
71805;BME280;59654;52.216;5.616;2023-05-01T00:56:34;101592.00;;;6.93;88.70
71805;BME280;59654;52.216;5.616;2023-05-01T00:57:06;101595.53;;;6.92;88.77
71805;BME280;59654;52.216;5.616;2023-05-01T00:57:38;101590.25;;;6.91;88.61
71805;BME280;59654;52.216;5.616;2023-05-01T00:58:10;101592.06;;;6.90;89.60
71805;BME280;59654;52.216;5.616;2023-05-01T00:58:44;101590.25;;;6.91;89.21
71805;BME280;59654;52.216;5.616;2023-05-01T00:59:17;101585.88;;;6.90;89.01
71805;BME280;59654;52.216;5.616;2023-05-01T00:59:48;101594.72;;;6.90;89.33
71805;BME280;59654;52.216;5.616;2023-05-01T01:00:19;101585.88;;;6.90;89.28
71805;BME280;59654;52.216;5.616;2023-05-01T01:00:52;101582.34;;;6.89;89.41
71805;BME280;59654;52.216;5.616;2023-05-01T01:01:24;101590.28;;;6.89;89.51
71805;BME280;59654;52.216;5.616;2023-05-01T01:01:55;101584.13;;;6.89;89.39
71805;BME280;59654;52.216;5.616;2023-05-01T01:02:26;101584.13;;;6.89;89.41
71805;BME280;59654;52.216;5.616;2023-05-01T01:02:57;101582.34;;;6.89;89.12
71805;BME280;59654;52.216;5.616;2023-05-01T01:03:28;101583.22;;;6.90;89.25
71805;BME280;59654;52.216;5.616;2023-05-01T01:04:00;101584.09;;;6.90;89.42
71805;BME280;59654;52.216;5.616;2023-05-01T01:04:31;101576.16;;;6.90;88.70
71805;BME280;59654;52.216;5.616;2023-05-01T01:05:03;101577.91;;;6.90;89.43
71805;BME280;59654;52.216;5.616;2023-05-01T01:05:42;101578.81;;;6.89;89.25
71805;BME280;59654;52.216;5.616;2023-05-01T01:06:25;101573.53;;;6.87;89.51
71805;BME280;59654;52.216;5.616;2023-05-01T01:12:05;101567.38;;;6.83;88.35
71805;BME280;59654;52.216;5.616;2023-05-01T01:14:27;101567.34;;;6.85;88.52
71805;BME280;59654;52.216;5.616;2023-05-01T01:15:26;101560.28;;;6.86;88.24
71805;BME280;59654;52.216;5.616;2023-05-01T01:16:38;101557.63;;;6.86;88.32
71805;BME280;59654;52.216;5.616;2023-05-01T01:17:54;101554.09;;;6.87;89.10
71805;BME280;59654;52.216;5.616;2023-05-01T01:21:53;101549.88;;;6.69;89.54
71805;BME280;59654;52.216;5.616;2023-05-01T01:22:28;101555.19;;;6.67;89.30
71805;BME280;59654;52.216;5.616;2023-05-01T01:26:12;101552.53;;;6.67;89.51
71805;BME280;59654;52.216;5.616;2023-05-01T01:28:27;101550.75;;;6.68;88.78
71805;BME280;59654;52.216;5.616;2023-05-01T01:33:42;101547.25;;;6.66;89.10
71805;BME280;59654;52.216;5.616;2023-05-01T01:34:38;101537.53;;;6.65;89.06
71805;BME280;59654;52.216;5.616;2023-05-01T01:35:25;101537.56;;;6.63;88.96
71805;BME280;59654;52.216;5.616;2023-05-01T01:36:04;101536.69;;;6.63;89.18
71805;BME280;59654;52.216;5.616;2023-05-01T01:36:47;101532.28;;;6.60;89.44
71805;BME280;59654;52.216;5.616;2023-05-01T01:37:29;101534.94;;;6.59;88.92
71805;BME280;59654;52.216;5.616;2023-05-01T01:38:29;101534.13;;;6.57;89.23
71805;BME280;59654;52.216;5.616;2023-05-01T01:40:16;101535.03;;;6.54;88.72
71805;BME280;59654;52.216;5.616;2023-05-01T01:40:56;101525.31;;;6.53;89.41
71805;BME280;59654;52.216;5.616;2023-05-01T01:41:34;101521.78;;;6.53;88.92
71805;BME280;59654;52.216;5.616;2023-05-01T01:42:12;101521.81;;;6.50;88.84
71805;BME280;59654;52.216;5.616;2023-05-01T01:43:32;101522.75;;;6.44;89.23
71805;BME280;59654;52.216;5.616;2023-05-01T01:44:32;101523.69;;;6.40;89.42
71805;BME280;59654;52.216;5.616;2023-05-01T01:45:16;101521.94;;;6.37;89.07
71805;BME280;59654;52.216;5.616;2023-05-01T01:45:59;101518.44;;;6.35;88.93
71805;BME280;59654;52.216;5.616;2023-05-01T01:46:38;101506.97;;;6.33;89.26
71805;BME280;59654;52.216;5.616;2023-05-01T01:47:13;101514.91;;;6.33;89.26
71805;BME280;59654;52.216;5.616;2023-05-01T01:47:47;101515.81;;;6.31;89.17
71805;BME280;59654;52.216;5.616;2023-05-01T01:48:25;101518.47;;;6.29;89.51
71805;BME280;59654;52.216;5.616;2023-05-01T01:49:06;101516.75;;;6.27;89.63
71805;BME280;59654;52.216;5.616;2023-05-01T01:49:47;101507.09;;;6.24;89.55
71805;BME280;59654;52.216;5.616;2023-05-01T01:50:23;101507.97;;;6.23;90.20
71805;BME280;59654;52.216;5.616;2023-05-01T01:50:58;101506.22;;;6.22;90.38
71805;BME280;59654;52.216;5.616;2023-05-01T01:51:30;101509.75;;;6.23;89.96
71805;BME280;59654;52.216;5.616;2023-05-01T01:52:02;101505.34;;;6.22;90.39
71805;BME280;59654;52.216;5.616;2023-05-01T01:52:39;101507.97;;;6.22;90.52
71805;BME280;59654;52.216;5.616;2023-05-01T01:53:15;101507.09;;;6.21;90.69
71805;BME280;59654;52.216;5.616;2023-05-01T01:53:52;101500.91;;;6.22;90.71
71805;BME280;59654;52.216;5.616;2023-05-01T01:54:32;101501.81;;;6.21;90.62
71805;BME280;59654;52.216;5.616;2023-05-01T01:55:12;101507.09;;;6.23;90.42
71805;BME280;59654;52.216;5.616;2023-05-01T01:55:47;101505.31;;;6.23;89.99
71805;BME280;59654;52.216;5.616;2023-05-01T01:56:21;101495.63;;;6.22;90.36
71805;BME280;59654;52.216;5.616;2023-05-01T01:57:00;101506.19;;;6.24;90.64
71805;BME280;59654;52.216;5.616;2023-05-01T01:57:35;101500.91;;;6.24;90.55
71805;BME280;59654;52.216;5.616;2023-05-01T01:58:10;101500.03;;;6.23;90.21
71805;BME280;59654;52.216;5.616;2023-05-01T01:58:45;101500.91;;;6.24;89.88
71805;BME280;59654;52.216;5.616;2023-05-01T01:59:19;101500.91;;;6.24;89.91
71805;BME280;59654;52.216;5.616;2023-05-01T01:59:53;101486.78;;;6.23;89.78
71805;BME280;59654;52.216;5.616;2023-05-01T02:00:27;101494.72;;;6.25;90.10
71805;BME280;59654;52.216;5.616;2023-05-01T02:00:59;101492.97;;;6.24;90.34
71805;BME280;59654;52.216;5.616;2023-05-01T02:01:30;101492.97;;;6.22;90.01
71805;BME280;59654;52.216;5.616;2023-05-01T02:02:03;101492.09;;;6.23;90.25
71805;BME280;59654;52.216;5.616;2023-05-01T02:02:37;101485.91;;;6.23;90.35
71805;BME280;59654;52.216;5.616;2023-05-01T02:03:09;101493.88;;;6.21;89.86
71805;BME280;59654;52.216;5.616;2023-05-01T02:03:44;101490.38;;;6.18;89.90
71805;BME280;59654;52.216;5.616;2023-05-01T02:04:18;101490.38;;;6.16;89.96
71805;BME280;59654;52.216;5.616;2023-05-01T02:04:51;101493.03;;;6.15;90.34
71805;BME280;59654;52.216;5.616;2023-05-01T02:05:25;101491.34;;;6.09;89.74
71805;BME280;59654;52.216;5.616;2023-05-01T02:05:59;101486.97;;;6.03;89.95
71805;BME280;59654;52.216;5.616;2023-05-01T02:06:33;101493.22;;;5.95;89.55
71805;BME280;59654;52.216;5.616;2023-05-01T02:07:07;101482.72;;;5.87;90.07
71805;BME280;59654;52.216;5.616;2023-05-01T02:07:45;101492.44;;;5.84;90.51
71805;BME280;59654;52.216;5.616;2023-05-01T02:08:19;101493.34;;;5.80;90.69
71805;BME280;59654;52.216;5.616;2023-05-01T02:08:52;101485.41;;;5.80;90.80
71805;BME280;59654;52.216;5.616;2023-05-01T02:09:25;101488.06;;;5.78;91.10
71805;BME280;59654;52.216;5.616;2023-05-01T02:09:59;101492.47;;;5.79;91.33
71805;BME280;59654;52.216;5.616;2023-05-01T02:10:33;101483.66;;;5.78;91.37
71805;BME280;59654;52.216;5.616;2023-05-01T02:11:10;101482.75;;;5.81;91.23
71805;BME280;59654;52.216;5.616;2023-05-01T02:11:45;101484.50;;;5.82;91.27
71805;BME280;59654;52.216;5.616;2023-05-01T02:12:18;101488.03;;;5.84;90.99
71805;BME280;59654;52.216;5.616;2023-05-01T02:12:54;101479.19;;;5.85;91.10
71805;BME280;59654;52.216;5.616;2023-05-01T02:13:28;101483.59;;;5.88;91.32
71805;BME280;59654;52.216;5.616;2023-05-01T02:14:02;101480.06;;;5.89;91.33
71805;BME280;59654;52.216;5.616;2023-05-01T02:14:35;101474.75;;;5.90;91.59
71805;BME280;59654;52.216;5.616;2023-05-01T02:15:09;101480.91;;;5.92;91.48
71805;BME280;59654;52.216;5.616;2023-05-01T02:15:44;101473.84;;;5.93;90.86
71805;BME280;59654;52.216;5.616;2023-05-01T02:16:16;101477.34;;;5.95;91.06
71805;BME280;59654;52.216;5.616;2023-05-01T02:16:49;101472.03;;;5.95;91.02
71805;BME280;59654;52.216;5.616;2023-05-01T02:17:22;101473.81;;;5.94;91.52
71805;BME280;59654;52.216;5.616;2023-05-01T02:17:53;101472.03;;;5.96;91.62
71805;BME280;59654;52.216;5.616;2023-05-01T02:18:27;101472.03;;;5.96;91.15
71805;BME280;59654;52.216;5.616;2023-05-01T02:19:01;101472.00;;;5.98;91.54
71805;BME280;59654;52.216;5.616;2023-05-01T02:19:37;101469.34;;;6.01;91.31
71805;BME280;59654;52.216;5.616;2023-05-01T02:20:11;101474.63;;;6.01;91.07
71805;BME280;59654;52.216;5.616;2023-05-01T02:20:43;101472.00;;;6.01;90.99
71805;BME280;59654;52.216;5.616;2023-05-01T02:21:16;101466.69;;;6.02;91.10
71805;BME280;59654;52.216;5.616;2023-05-01T02:21:49;101464.03;;;6.04;90.70
71805;BME280;59654;52.216;5.616;2023-05-01T02:22:23;101471.09;;;6.05;90.57
71805;BME280;59654;52.216;5.616;2023-05-01T02:22:57;101471.09;;;6.05;90.32
71805;BME280;59654;52.216;5.616;2023-05-01T02:23:30;101458.72;;;6.05;90.34
71805;BME280;59654;52.216;5.616;2023-05-01T02:24:04;101465.78;;;6.05;89.83
71805;BME280;59654;52.216;5.616;2023-05-01T02:24:38;101464.03;;;6.05;89.91
71805;BME280;59654;52.216;5.616;2023-05-01T02:25:12;101462.25;;;6.04;89.68
71805;BME280;59654;52.216;5.616;2023-05-01T02:25:44;101460.50;;;6.05;89.57
71805;BME280;59654;52.216;5.616;2023-05-01T02:26:17;101464.88;;;6.07;89.49
71805;BME280;59654;52.216;5.616;2023-05-01T02:26:54;101460.50;;;6.05;89.37
71805;BME280;59654;52.216;5.616;2023-05-01T02:27:35;101461.38;;;6.05;89.38
71805;BME280;59654;52.216;5.616;2023-05-01T02:28:12;101459.63;;;6.04;89.76
71805;BME280;59654;52.216;5.616;2023-05-01T02:28:45;101459.63;;;6.04;90.02
71805;BME280;59654;52.216;5.616;2023-05-01T02:29:17;101456.97;;;6.04;89.76
71805;BME280;59654;52.216;5.616;2023-05-01T02:29:50;101459.63;;;6.04;90.04
71805;BME280;59654;52.216;5.616;2023-05-01T02:30:21;101458.72;;;6.05;90.17
71805;BME280;59654;52.216;5.616;2023-05-01T02:30:53;101455.19;;;6.05;90.43
71805;BME280;59654;52.216;5.616;2023-05-01T02:31:24;101456.97;;;6.03;90.12
71805;BME280;59654;52.216;5.616;2023-05-01T02:31:55;101449.03;;;6.04;90.11
71805;BME280;59654;52.216;5.616;2023-05-01T02:32:26;101451.66;;;6.04;89.92
71805;BME280;59654;52.216;5.616;2023-05-01T02:32:59;101448.16;;;6.02;90.00
71805;BME280;59654;52.216;5.616;2023-05-01T02:33:30;101458.72;;;6.04;90.50
71805;BME280;59654;52.216;5.616;2023-05-01T02:34:01;101452.56;;;6.03;90.24
71805;BME280;59654;52.216;5.616;2023-05-01T02:34:35;101453.44;;;6.04;90.23
71805;BME280;59654;52.216;5.616;2023-05-01T02:35:06;101449.91;;;6.03;90.65
71805;BME280;59654;52.216;5.616;2023-05-01T02:35:40;101453.44;;;6.05;90.48
71805;BME280;59654;52.216;5.616;2023-05-01T02:36:13;101456.09;;;6.04;90.27
71805;BME280;59654;52.216;5.616;2023-05-01T02:36:44;101447.28;;;6.03;90.70
71805;BME280;59654;52.216;5.616;2023-05-01T02:37:15;101445.50;;;6.02;90.05
71805;BME280;59654;52.216;5.616;2023-05-01T02:37:48;101443.75;;;6.01;90.20
71805;BME280;59654;52.216;5.616;2023-05-01T02:38:19;101452.56;;;6.02;90.90
71805;BME280;59654;52.216;5.616;2023-05-01T02:38:50;101449.06;;;6.01;90.94
71805;BME280;59654;52.216;5.616;2023-05-01T02:39:21;101446.41;;;6.01;90.62
71805;BME280;59654;52.216;5.616;2023-05-01T02:39:53;101442.00;;;6.02;90.66
71805;BME280;59654;52.216;5.616;2023-05-01T02:40:25;101448.16;;;6.02;90.79
71805;BME280;59654;52.216;5.616;2023-05-01T02:40:57;101444.63;;;6.02;90.64
71805;BME280;59654;52.216;5.616;2023-05-01T02:41:32;101441.09;;;6.03;90.72
71805;BME280;59654;52.216;5.616;2023-05-01T02:42:07;101444.63;;;6.03;90.56
71805;BME280;59654;52.216;5.616;2023-05-01T02:42:42;101442.84;;;6.04;90.38
71805;BME280;59654;52.216;5.616;2023-05-01T02:43:18;101449.91;;;6.03;90.45
71805;BME280;59654;52.216;5.616;2023-05-01T02:43:55;101450.78;;;6.05;90.60
71805;BME280;59654;52.216;5.616;2023-05-01T02:45:19;101441.97;;;6.05;90.52
71805;BME280;59654;52.216;5.616;2023-05-01T02:45:37;101441.97;;;6.05;90.54
71805;BME280;59654;52.216;5.616;2023-05-01T02:46:10;101442.84;;;6.05;90.11
71805;BME280;59654;52.216;5.616;2023-05-01T02:46:46;101442.84;;;6.07;90.34
71805;BME280;59654;52.216;5.616;2023-05-01T02:47:21;101442.84;;;6.07;89.79
71805;BME280;59654;52.216;5.616;2023-05-01T02:47:55;101435.78;;;6.06;89.54
71805;BME280;59654;52.216;5.616;2023-05-01T02:48:30;101441.06;;;6.06;89.68
71805;BME280;59654;52.216;5.616;2023-05-01T02:49:03;101440.19;;;6.05;89.39
71805;BME280;59654;52.216;5.616;2023-05-01T02:49:36;101437.53;;;6.05;89.32
71805;BME280;59654;52.216;5.616;2023-05-01T02:50:10;101437.56;;;6.04;89.15
71805;BME280;59654;52.216;5.616;2023-05-01T02:50:43;101435.78;;;6.04;89.34
71805;BME280;59654;52.216;5.616;2023-05-01T02:51:17;101445.50;;;6.04;88.89
71805;BME280;59654;52.216;5.616;2023-05-01T02:51:49;101442.84;;;6.04;88.65
71805;BME280;59654;52.216;5.616;2023-05-01T02:52:21;101441.09;;;6.03;88.97
71805;BME280;59654;52.216;5.616;2023-05-01T02:52:59;101432.28;;;6.02;88.32
71805;BME280;59654;52.216;5.616;2023-05-01T02:53:41;101433.19;;;6.00;88.51
71805;BME280;59654;52.216;5.616;2023-05-01T02:54:22;101435.81;;;6.00;88.78
71805;BME280;59654;52.216;5.616;2023-05-01T02:54:54;101428.78;;;5.99;88.43
71805;BME280;59654;52.216;5.616;2023-05-01T02:55:26;101431.44;;;5.97;88.80
71805;BME280;59654;52.216;5.616;2023-05-01T02:55:58;101429.66;;;5.98;89.19
71805;BME280;59654;52.216;5.616;2023-05-01T02:56:30;101428.78;;;5.97;88.86
71805;BME280;59654;52.216;5.616;2023-05-01T02:57:03;101432.31;;;5.98;89.00
71805;BME280;59654;52.216;5.616;2023-05-01T02:57:35;101434.97;;;5.98;88.98
71805;BME280;59654;52.216;5.616;2023-05-01T02:58:06;101420.00;;;5.94;88.86
71805;BME280;59654;52.216;5.616;2023-05-01T02:58:37;101427.03;;;5.96;89.21
71805;BME280;59654;52.216;5.616;2023-05-01T02:59:08;101427.91;;;5.95;88.99
71805;BME280;59654;52.216;5.616;2023-05-01T02:59:39;101429.69;;;5.95;89.55
71805;BME280;59654;52.216;5.616;2023-05-01T03:00:10;101424.41;;;5.93;89.76
71805;BME280;59654;52.216;5.616;2023-05-01T03:00:43;101425.28;;;5.94;89.61
71805;BME280;59654;52.216;5.616;2023-05-01T03:01:14;101426.16;;;5.94;89.81
71805;BME280;59654;52.216;5.616;2023-05-01T03:01:45;101427.03;;;5.95;88.98
71805;BME280;59654;52.216;5.616;2023-05-01T03:02:16;101424.41;;;5.95;89.38
71805;BME280;59654;52.216;5.616;2023-05-01T03:02:47;101420.00;;;5.94;89.04
71805;BME280;59654;52.216;5.616;2023-05-01T03:03:19;101420.91;;;5.93;88.85
71805;BME280;59654;52.216;5.616;2023-05-01T03:03:50;101419.97;;;5.95;88.70
71805;BME280;59654;52.216;5.616;2023-05-01T03:04:21;101419.13;;;5.93;89.07
71805;BME280;59654;52.216;5.616;2023-05-01T03:04:52;101423.56;;;5.93;89.29
71805;BME280;59654;52.216;5.616;2023-05-01T03:05:23;101427.94;;;5.94;89.52
71805;BME280;59654;52.216;5.616;2023-05-01T03:05:54;101421.81;;;5.90;89.60
71805;BME280;59654;52.216;5.616;2023-05-01T03:06:25;101420.06;;;5.89;89.94
71805;BME280;59654;52.216;5.616;2023-05-01T03:06:58;101419.19;;;5.90;89.77
71805;BME280;59654;52.216;5.616;2023-05-01T03:07:30;101423.59;;;5.90;89.43
71805;BME280;59654;52.216;5.616;2023-05-01T03:08:04;101421.84;;;5.87;89.61
71805;BME280;59654;52.216;5.616;2023-05-01T03:08:36;101426.25;;;5.87;89.90
71805;BME280;59654;52.216;5.616;2023-05-01T03:09:07;101422.75;;;5.85;90.25
71805;BME280;59654;52.216;5.616;2023-05-01T03:09:38;101416.56;;;5.84;90.10
71805;BME280;59654;52.216;5.616;2023-05-01T03:10:09;101421.00;;;5.84;90.04
71805;BME280;59654;52.216;5.616;2023-05-01T03:10:41;101427.16;;;5.83;90.52
71805;BME280;59654;52.216;5.616;2023-05-01T03:11:12;101413.94;;;5.81;90.45
71805;BME280;59654;52.216;5.616;2023-05-01T03:11:45;101422.75;;;5.83;90.51
71805;BME280;59654;52.216;5.616;2023-05-01T03:12:16;101417.47;;;5.83;90.82
71805;BME280;59654;52.216;5.616;2023-05-01T03:12:47;101417.44;;;5.85;91.10
71805;BME280;59654;52.216;5.616;2023-05-01T03:13:18;101423.63;;;5.84;90.54
71805;BME280;59654;52.216;5.616;2023-05-01T03:13:49;101415.72;;;5.82;90.43
71805;BME280;59654;52.216;5.616;2023-05-01T03:14:19;101418.38;;;5.81;90.29
71805;BME280;59654;52.216;5.616;2023-05-01T03:14:51;101412.22;;;5.78;90.12
71805;BME280;59654;52.216;5.616;2023-05-01T03:15:22;101413.09;;;5.77;90.25
71805;BME280;59654;52.216;5.616;2023-05-01T03:15:53;101414.88;;;5.77;90.41
71805;BME280;59654;52.216;5.616;2023-05-01T03:16:24;101414.91;;;5.75;90.39
71805;BME280;59654;52.216;5.616;2023-05-01T03:16:55;101413.09;;;5.77;90.80
71805;BME280;59654;52.216;5.616;2023-05-01T03:17:26;101408.75;;;5.75;90.95
71805;BME280;59654;52.216;5.616;2023-05-01T03:17:57;101419.31;;;5.75;91.15
71805;BME280;59654;52.216;5.616;2023-05-01T03:18:28;101417.56;;;5.74;90.76
71805;BME280;59654;52.216;5.616;2023-05-01T03:19:00;101410.53;;;5.73;90.82
71805;BME280;59654;52.216;5.616;2023-05-01T03:19:30;101422.00;;;5.72;90.86